createdAt,value
2018-11-04T00:01:33.097Z,10.78
2018-11-04T00:06:37.914Z,10.74
2018-11-04T00:11:43.307Z,10.76
2018-11-04T00:16:48.023Z,10.78
2018-11-04T00:21:52.673Z,10.78
2018-11-04T00:26:57.209Z,10.73
2018-11-04T00:32:01.566Z,10.73
2018-11-04T00:37:09.464Z,10.71
2018-11-04T00:42:23.394Z,10.74
2018-11-04T00:47:29.739Z,10.71
2018-11-04T00:52:34.994Z,10.68
2018-11-04T00:57:40.242Z,10.65
2018-11-04T01:02:46.003Z,10.69
2018-11-04T01:07:51.482Z,10.67
2018-11-04T01:12:55.984Z,10.69
2018-11-04T01:18:00.815Z,10.74
2018-11-04T01:23:13.079Z,10.72
2018-11-04T01:28:18.903Z,10.71
2018-11-04T01:33:27.666Z,10.70
2018-11-04T01:38:33.029Z,10.70
2018-11-04T01:43:39.104Z,10.69
2018-11-04T01:48:44.604Z,10.69
2018-11-04T01:53:49.001Z,10.68
2018-11-04T01:58:53.577Z,10.68
2018-11-04T02:03:59.593Z,10.64
2018-11-04T02:09:04.492Z,10.60
2018-11-04T02:14:09.833Z,10.58
2018-11-04T02:19:15.838Z,10.55
2018-11-04T02:24:20.123Z,10.58
2018-11-04T02:29:24.523Z,10.60
2018-11-04T02:34:29.017Z,10.61
2018-11-04T02:39:34.079Z,10.61
2018-11-04T02:44:39.428Z,10.59
2018-11-04T02:49:44.195Z,10.55
2018-11-04T02:54:48.608Z,10.58
2018-11-04T02:59:52.999Z,10.58
2018-11-04T03:10:30.076Z,10.54
2018-11-04T03:15:34.507Z,10.54
2018-11-04T03:20:38.803Z,10.56
2018-11-04T03:25:43.163Z,10.55
2018-11-04T03:30:47.632Z,10.56
2018-11-04T03:35:52.251Z,10.56
2018-11-04T03:40:58.694Z,10.57
2018-11-04T03:46:03.847Z,10.57
2018-11-04T03:51:08.333Z,10.57
2018-11-04T03:56:12.831Z,10.57
2018-11-04T04:01:17.364Z,10.58
2018-11-04T04:06:22.396Z,10.61
2018-11-04T04:11:26.600Z,10.62
2018-11-04T04:16:30.859Z,10.64
2018-11-04T04:21:35.643Z,10.67
2018-11-04T04:26:41.437Z,10.67
2018-11-04T04:31:47.037Z,10.67
2018-11-04T04:36:52.389Z,10.68
2018-11-04T04:41:57.138Z,10.69
2018-11-04T04:47:01.639Z,10.69
2018-11-04T04:57:38.203Z,10.68
2018-11-04T05:02:42.986Z,10.70
2018-11-04T05:07:47.834Z,10.72
2018-11-04T05:12:52.007Z,10.75
2018-11-04T05:17:57.188Z,10.75
2018-11-04T05:23:07.715Z,10.78
2018-11-04T05:28:13.995Z,10.75
2018-11-04T05:33:22.049Z,10.75
2018-11-04T05:38:27.832Z,10.73
2018-11-04T05:43:32.215Z,10.73
2018-11-04T05:48:37.348Z,10.76
2018-11-04T05:53:42.739Z,10.77
2018-11-04T05:58:46.970Z,10.78
2018-11-04T06:03:51.357Z,10.78
2018-11-04T06:08:56.845Z,10.79
2018-11-04T06:14:01.381Z,10.78
2018-11-04T06:19:06.176Z,10.77
2018-11-04T06:24:11.007Z,10.74
2018-11-04T06:29:15.373Z,10.75
2018-11-04T06:34:33.166Z,10.75
2018-11-04T06:39:37.406Z,10.76
2018-11-04T06:44:42.449Z,10.77
2018-11-04T06:49:47.879Z,10.77
2018-11-04T06:54:52.371Z,10.81
2018-11-04T06:59:57.232Z,10.84
2018-11-04T07:05:01.564Z,10.87
2018-11-04T07:10:07.725Z,10.88
2018-11-04T07:15:12.021Z,10.94
2018-11-04T07:20:16.253Z,10.94
2018-11-04T07:25:21.196Z,10.96
2018-11-04T07:30:26.259Z,10.97
2018-11-04T07:35:30.701Z,10.97
2018-11-04T07:40:35.075Z,10.94
2018-11-04T07:45:39.473Z,10.94
2018-11-04T07:50:44.319Z,10.95
2018-11-04T07:55:49.000Z,10.96
2018-11-04T08:00:53.655Z,10.95
2018-11-04T08:05:58.069Z,10.96
2018-11-04T08:11:03.502Z,10.99
2018-11-04T08:16:08.007Z,11.04
2018-11-04T08:21:12.814Z,11.04
2018-11-04T08:26:18.785Z,11.05
2018-11-04T08:31:23.916Z,11.05
2018-11-04T08:36:28.452Z,11.07
2018-11-04T08:41:38.070Z,11.07
2018-11-04T08:46:42.807Z,11.10
2018-11-04T08:51:53.583Z,11.13
2018-11-04T08:56:58.205Z,11.16
2018-11-04T09:02:02.856Z,11.20
2018-11-04T09:07:07.564Z,11.21
2018-11-04T09:12:12.245Z,11.21
2018-11-04T09:17:16.777Z,11.26
2018-11-04T09:22:21.707Z,11.29
2018-11-04T09:27:26.121Z,11.33
2018-11-04T09:32:30.654Z,11.35
2018-11-04T09:37:35.507Z,11.39
2018-11-04T09:42:47.274Z,11.42
2018-11-04T09:47:52.385Z,11.43
2018-11-04T09:52:57.654Z,11.45
2018-11-04T09:58:03.943Z,11.49
2018-11-04T10:03:10.197Z,11.52
2018-11-04T10:08:15.450Z,11.51
2018-11-04T10:13:23.069Z,11.48
2018-11-04T10:18:31.132Z,11.51
2018-11-04T10:29:14.081Z,11.51
2018-11-04T10:34:19.494Z,11.54
2018-11-04T10:39:24.897Z,11.58
2018-11-04T10:44:35.260Z,11.61
2018-11-04T10:49:50.949Z,11.63
2018-11-04T10:54:56.634Z,11.68
2018-11-04T11:00:07.126Z,11.75
2018-11-04T11:05:14.391Z,11.82
2018-11-04T11:10:22.967Z,11.86
2018-11-04T11:15:46.202Z,11.92
2018-11-04T11:20:50.770Z,11.96
2018-11-04T11:31:35.601Z,11.92
2018-11-04T11:36:44.217Z,11.92
2018-11-04T11:41:48.924Z,11.90
2018-11-04T11:52:13.537Z,11.93
2018-11-04T11:57:18.391Z,11.97
2018-11-04T12:02:41.022Z,11.96
2018-11-04T12:07:45.670Z,11.96
2018-11-04T12:12:51.026Z,11.96
2018-11-04T12:17:55.964Z,12.00
2018-11-04T12:33:42.712Z,12.08
2018-11-04T12:38:49.100Z,12.08
2018-11-04T12:49:35.466Z,12.16
2018-11-04T12:54:52.098Z,12.16
2018-11-04T12:59:57.787Z,12.15
2018-11-04T13:05:03.422Z,12.16
2018-11-04T13:10:10.185Z,12.18
2018-11-04T13:15:15.856Z,12.21
2018-11-04T13:20:21.034Z,12.22
2018-11-04T13:25:44.242Z,12.21
2018-11-04T13:30:50.810Z,12.21
2018-11-04T13:36:09.384Z,12.20
2018-11-04T13:41:15.194Z,12.20
2018-11-04T13:46:19.807Z,12.20
2018-11-04T13:51:33.960Z,12.21
2018-11-04T13:56:43.052Z,12.21
2018-11-04T14:02:07.904Z,12.22
2018-11-04T14:12:55.575Z,12.23
2018-11-04T14:18:18.499Z,12.22
2018-11-04T14:23:33.177Z,12.20
2018-11-04T14:28:46.853Z,12.20
2018-11-04T15:06:31.889Z,12.27
2018-11-04T15:11:45.423Z,12.25
2018-11-04T15:17:17.677Z,12.23
2018-11-04T15:22:32.884Z,12.20
2018-11-04T15:27:42.574Z,12.18
2018-11-04T15:38:22.755Z,12.21
2018-11-04T15:43:38.174Z,12.20
2018-11-04T15:54:27.077Z,12.25
2018-11-04T15:59:34.866Z,12.20
2018-11-04T16:04:44.551Z,12.16
2018-11-04T16:09:59.151Z,12.19
2018-11-04T16:15:04.245Z,12.17
2018-11-04T16:20:12.687Z,12.14
2018-11-04T16:25:23.120Z,12.11
2018-11-04T16:30:40.349Z,12.17
2018-11-04T16:35:48.604Z,12.15
2018-11-04T16:40:57.838Z,12.15
2018-11-04T16:46:28.403Z,12.15
2018-11-04T16:57:21.419Z,12.19
2018-11-04T17:02:45.381Z,12.19
2018-11-04T17:08:00.708Z,12.22
2018-11-04T17:34:49.100Z,12.18
2018-11-04T17:39:57.048Z,12.23
2018-11-04T17:45:05.993Z,12.17
2018-11-04T17:50:18.167Z,12.18
2018-11-04T17:55:23.254Z,12.19
2018-11-04T18:00:28.733Z,12.14
2018-11-04T18:05:33.517Z,12.11
2018-11-04T18:10:39.553Z,12.09
2018-11-04T18:15:45.821Z,12.11
2018-11-04T18:20:56.290Z,12.09
2018-11-04T18:26:08.130Z,12.12
2018-11-04T18:31:14.981Z,12.08
2018-11-04T18:36:37.983Z,12.11
2018-11-04T18:52:56.405Z,12.20
2018-11-04T19:09:02.902Z,12.15
2018-11-04T19:14:08.728Z,12.14
2018-11-04T19:24:28.286Z,12.12
2018-11-04T19:29:35.315Z,12.10
2018-11-04T19:34:42.757Z,12.00
2018-11-04T19:39:54.487Z,11.98
2018-11-04T19:45:04.031Z,11.91
2018-11-04T19:50:28.035Z,11.90
2018-11-04T20:14:15.396Z,11.87
2018-11-04T20:19:27.925Z,11.81
2018-11-04T20:30:21.040Z,11.75
2018-11-04T20:35:41.573Z,11.74
2018-11-04T20:41:14.858Z,11.77
2018-11-04T20:46:42.860Z,11.75
2018-11-04T21:03:01.850Z,11.70
2018-11-04T21:08:35.476Z,11.69
2018-11-04T21:14:10.196Z,11.66
2018-11-04T21:19:21.896Z,11.63
2018-11-04T21:24:35.752Z,11.57
2018-11-04T21:29:42.041Z,11.53
2018-11-04T21:34:55.521Z,11.55
2018-11-04T21:40:01.501Z,11.57
2018-11-04T21:45:13.341Z,11.60
2018-11-04T21:50:19.564Z,11.64
2018-11-04T21:55:29.528Z,11.66
2018-11-04T22:00:34.954Z,11.69
2018-11-04T22:05:53.306Z,11.71
2018-11-04T22:10:58.952Z,11.72
2018-11-04T22:16:05.693Z,11.78
2018-11-04T22:21:10.436Z,11.81
2018-11-04T22:26:20.326Z,11.78
2018-11-04T22:31:29.286Z,11.75
2018-11-04T22:36:34.558Z,11.76
2018-11-04T22:41:40.169Z,11.77
2018-11-04T22:46:45.326Z,11.79
2018-11-04T22:51:55.001Z,11.82
2018-11-04T22:57:00.670Z,11.80
2018-11-04T23:02:05.315Z,11.83
2018-11-04T23:07:09.701Z,11.86
2018-11-04T23:12:14.093Z,11.85
2018-11-04T23:17:18.812Z,11.87
2018-11-04T23:22:23.339Z,11.87
2018-11-04T23:27:28.092Z,11.84
2018-11-04T23:32:32.399Z,11.83
2018-11-04T23:37:36.863Z,11.81
2018-11-04T23:42:41.457Z,11.81
2018-11-04T23:47:46.394Z,11.76
2018-11-04T23:52:51.035Z,11.78
2018-11-04T23:57:55.590Z,11.77
